Buxton, Kansas
Current Conditions -  °F | °C
As of 3:52 PM on Monday 20 Oct 2014 (Local Time) from KCNU Reporting Station
Few Clouds Few Clouds  
Wind Chill: 79°   Ceiling: Unl
Heat Index: 79°   Visibility: 10mi
Dew Point: 54°   Wind: 3mph
Humidity: 42%   Direction: NA
Pressure: 30.01"   Gusts: NA
Location:  37.5252°N, 95.8316°W
Report Text: KCNU 202052Z AUTO VRB03KT 10SM FEW055 26/12 A3001 RMK AO2 SLP155 T02610122 56014
Loading
Personal Weather Stations






























Interactive Weather Map
Tropical Storm Tracking
New forecast layout! Learn more

10-Day Weather Forecast

Advertisements
Track Severe Weather on mobile